Pierson, Florida
Current Conditions -  °F | °C
As of 2:53 AM on Saturday 20 Dec 2014 (Local Time) from KDAB Reporting Station
Few Clouds Few Clouds  
Wind Chill: 55°   Ceiling: Unl
Heat Index: 55°   Visibility: 7mi
Dew Point: 53°   Wind: 5mph
Humidity: 93%   Direction: 320°NW
Pressure: 30.08"   Gusts: NA
Location:  29.24°N, 81.47°W
Report Text: KDAB 200753Z 32004KT 7SM FEW250 13/12 A3008 RMK AO2 SLP185 T01280117
Loading
Personal Weather Stations






























Interactive Weather Map New forecast layout! Learn more

10-Day Weather Forecast

Advertisements
Track Severe Weather on mobile